createdAt,value
2018-02-13T00:02:19.712Z,4.32
2018-02-13T00:04:47.958Z,4.10
2018-02-13T00:07:15.469Z,4.25
2018-02-13T00:09:42.955Z,5.60
2018-02-13T00:12:10.430Z,4.68
2018-02-13T00:14:37.893Z,5.55
2018-02-13T00:17:05.400Z,5.97
2018-02-13T00:19:32.885Z,5.87
2018-02-13T00:22:00.410Z,5.40
2018-02-13T00:24:27.885Z,5.32
2018-02-13T00:26:55.354Z,5.05
2018-02-13T00:29:22.914Z,5.05
2018-02-13T00:31:50.388Z,4.72
2018-02-13T00:34:17.871Z,5.53
2018-02-13T00:36:46.128Z,4.93
2018-02-13T00:39:13.606Z,4.75
2018-02-13T00:41:41.840Z,4.78
2018-02-13T00:44:09.334Z,7.07
2018-02-13T00:46:37.571Z,8.18
2018-02-13T00:49:05.108Z,10.50
2018-02-13T00:51:32.570Z,8.50
2018-02-13T00:54:00.194Z,6.35
2018-02-13T00:56:27.683Z,6.18
2018-02-13T00:58:55.164Z,4.57
2018-02-13T01:01:22.650Z,5.25
2018-02-13T01:03:50.136Z,4.75
2018-02-13T01:06:18.365Z,6.37
2018-02-13T01:08:45.835Z,5.70
2018-02-13T01:11:13.346Z,5.55
2018-02-13T01:13:40.838Z,5.93
2018-02-13T01:16:08.351Z,5.25
2018-02-13T01:18:36.572Z,4.43
2018-02-13T01:21:04.045Z,4.78
2018-02-13T01:23:31.546Z,4.47
2018-02-13T01:25:59.009Z,5.43
2018-02-13T01:28:26.510Z,5.65
2018-02-13T01:30:53.983Z,6.75
2018-02-13T01:33:21.490Z,4.37
2018-02-13T01:35:48.977Z,5.25
2018-02-13T01:38:16.438Z,4.53
2018-02-13T01:40:43.938Z,4.97
2018-02-13T01:43:11.411Z,4.25
2018-02-13T01:45:39.674Z,5.10
2018-02-13T01:48:07.911Z,4.05
2018-02-13T01:50:35.419Z,4.55
2018-02-13T01:53:03.659Z,4.25
2018-02-13T01:55:31.169Z,4.78
2018-02-13T01:57:59.428Z,4.22
2018-02-13T02:00:27.651Z,4.12
2018-02-13T02:02:55.146Z,4.05
2018-02-13T02:05:22.653Z,3.90
2018-02-13T02:07:50.153Z,4.75
2018-02-13T02:10:17.642Z,5.18
2018-02-13T02:12:45.897Z,4.22
2018-02-13T02:15:13.374Z,3.50
2018-02-13T02:17:41.646Z,3.90
2018-02-13T02:20:09.878Z,3.95
2018-02-13T02:22:37.340Z,3.85
2018-02-13T02:25:04.821Z,3.90
2018-02-13T02:27:32.286Z,4.50
2018-02-13T02:29:59.786Z,4.40
2018-02-13T02:32:27.270Z,5.37
2018-02-13T02:34:54.765Z,5.62
2018-02-13T02:37:22.993Z,4.62
2018-02-13T02:39:50.477Z,5.07
2018-02-13T02:42:17.942Z,4.70
2018-02-13T02:44:45.465Z,4.65
2018-02-13T02:47:12.959Z,4.35
2018-02-13T02:49:40.426Z,4.03
2018-02-13T02:52:07.925Z,4.18
2018-02-13T02:54:35.391Z,5.07
2018-02-13T02:57:02.895Z,3.72
2018-02-13T02:59:30.380Z,3.90
2018-02-13T03:01:58.666Z,4.30
2018-02-13T03:04:26.921Z,4.00
2018-02-13T03:06:54.398Z,4.50
2018-02-13T03:09:22.655Z,4.20
2018-02-13T03:11:50.148Z,4.65
2018-02-13T03:14:18.386Z,4.10
2018-02-13T03:16:45.903Z,4.35
2018-02-13T03:19:13.358Z,4.32
2018-02-13T03:21:40.816Z,4.15
2018-02-13T03:24:08.310Z,3.92
2018-02-13T03:26:36.555Z,4.30
2018-02-13T03:29:04.132Z,3.75
2018-02-13T03:31:31.615Z,4.30
2018-02-13T03:33:59.140Z,4.20
2018-02-13T03:36:26.602Z,3.92
2018-02-13T03:38:54.062Z,4.12
2018-02-13T03:41:21.523Z,3.70
2018-02-13T03:43:49.011Z,4.40
2018-02-13T03:46:16.513Z,4.80
2018-02-13T03:48:44.010Z,5.57
2018-02-13T03:51:11.489Z,4.53
2018-02-13T03:53:38.998Z,4.35
2018-02-13T03:56:06.454Z,3.65
2018-02-13T03:58:33.951Z,3.92
2018-02-13T04:01:01.403Z,4.22
2018-02-13T04:03:28.920Z,4.12
2018-02-13T04:05:56.385Z,3.85
2018-02-13T04:08:23.858Z,4.07
2018-02-13T04:10:51.350Z,5.22
2018-02-13T04:13:18.836Z,5.25
2018-02-13T04:15:47.098Z,4.05
2018-02-13T04:18:15.359Z,4.03
2018-02-13T04:20:44.046Z,4.00
2018-02-13T04:23:11.525Z,3.75
2018-02-13T04:25:38.986Z,3.80
2018-02-13T04:28:07.271Z,3.87
2018-02-13T04:30:35.509Z,4.68
2018-02-13T04:33:04.507Z,3.58
2018-02-13T04:35:31.982Z,3.85
2018-02-13T04:38:00.249Z,3.65
2018-02-13T04:40:28.488Z,3.40
2018-02-13T04:42:55.990Z,4.12
2018-02-13T04:45:23.461Z,3.65
2018-02-13T04:47:51.709Z,3.87
2018-02-13T04:50:19.201Z,3.95
2018-02-13T04:52:47.429Z,3.33
2018-02-13T04:55:14.919Z,3.95
2018-02-13T04:57:42.386Z,4.18
2018-02-13T05:00:10.641Z,4.82
2018-02-13T05:02:38.105Z,4.95
2018-02-13T05:05:05.633Z,4.70
2018-02-13T05:07:33.107Z,4.43
2018-02-13T05:10:00.609Z,3.85
2018-02-13T05:12:28.857Z,5.43
2018-02-13T05:14:56.349Z,4.30
2018-02-13T05:17:24.610Z,5.05
2018-02-13T05:19:52.897Z,3.87
2018-02-13T05:22:21.119Z,3.90
2018-02-13T05:24:48.618Z,4.45
2018-02-13T05:27:16.893Z,3.97
2018-02-13T05:29:44.404Z,4.47
2018-02-13T05:32:11.861Z,3.90
2018-02-13T05:34:39.322Z,4.55
2018-02-13T05:37:06.826Z,3.72
2018-02-13T05:39:34.302Z,4.22
2018-02-13T05:42:01.776Z,4.05
2018-02-13T05:44:29.282Z,3.72
2018-02-13T05:46:56.794Z,3.65
2018-02-13T05:49:24.274Z,4.05
2018-02-13T05:51:51.750Z,4.62
2018-02-13T05:54:19.245Z,4.50
2018-02-13T05:56:47.506Z,3.90
2018-02-13T05:59:16.510Z,4.72
2018-02-13T06:01:44.790Z,3.92
2018-02-13T06:04:12.282Z,4.55
2018-02-13T06:06:39.761Z,4.75
2018-02-13T06:09:07.235Z,4.43
2018-02-13T06:11:34.742Z,3.85
2018-02-13T06:14:02.235Z,3.55
2018-02-13T06:16:29.732Z,4.07
2018-02-13T06:18:57.960Z,4.68
2018-02-13T06:21:25.458Z,4.00
2018-02-13T06:23:54.451Z,4.78
2018-02-13T06:26:21.967Z,4.53
2018-02-13T06:28:49.445Z,5.37
2018-02-13T06:31:16.972Z,5.25
2018-02-13T06:33:45.221Z,4.53
2018-02-13T06:36:12.721Z,4.22
2018-02-13T06:38:40.241Z,6.63
2018-02-13T06:41:08.485Z,5.00
2018-02-13T06:43:35.980Z,5.25
2018-02-13T06:46:04.269Z,5.22
2018-02-13T06:48:31.763Z,5.53
2018-02-13T06:50:59.284Z,5.50
2018-02-13T06:53:27.516Z,7.35
2018-02-13T06:55:55.002Z,6.78
2018-02-13T06:58:23.282Z,5.30
2018-02-13T07:00:51.542Z,5.50
2018-02-13T07:03:19.803Z,5.15
2018-02-13T07:05:47.286Z,5.80
2018-02-13T07:08:14.794Z,5.72
2018-02-13T07:10:42.330Z,6.15
2018-02-13T07:13:10.587Z,5.35
2018-02-13T07:15:38.086Z,5.15
2018-02-13T07:18:05.579Z,5.75
2018-02-13T07:20:33.092Z,5.78
2018-02-13T07:23:00.578Z,5.53
2018-02-13T07:25:28.076Z,5.10
2018-02-13T07:27:55.589Z,7.25
2018-02-13T07:30:23.046Z,7.00
2018-02-13T07:32:50.569Z,9.98
2018-02-13T07:35:18.807Z,8.85
2018-02-13T07:37:46.315Z,9.55
2018-02-13T07:40:13.892Z,8.25
2018-02-13T07:42:41.411Z,7.93
2018-02-13T07:45:08.882Z,8.77
2018-02-13T07:47:37.142Z,7.22
2018-02-13T07:50:04.641Z,7.82
2018-02-13T07:52:32.105Z,8.63
2018-02-13T07:54:59.639Z,7.75
2018-02-13T07:57:27.888Z,6.28
2018-02-13T07:59:55.399Z,6.97
2018-02-13T08:02:22.845Z,6.30
2018-02-13T08:04:50.482Z,6.35
2018-02-13T08:07:18.769Z,7.62
2018-02-13T08:09:47.014Z,8.23
2018-02-13T08:12:14.531Z,8.00
2018-02-13T08:14:41.996Z,6.40
2018-02-13T08:17:09.493Z,6.82
2018-02-13T08:19:36.986Z,7.45
2018-02-13T08:22:04.481Z,7.10
2018-02-13T08:24:31.971Z,7.40
2018-02-13T08:27:00.979Z,6.60
2018-02-13T08:29:29.241Z,7.07
2018-02-13T08:31:56.716Z,7.53
2018-02-13T08:34:24.978Z,6.50
2018-02-13T08:36:52.506Z,7.57
2018-02-13T08:39:20.014Z,8.90
2018-02-13T08:41:48.266Z,10.18
2018-02-13T08:44:15.792Z,9.85
2018-02-13T08:46:43.284Z,12.35
2018-02-13T08:49:10.787Z,12.65
2018-02-13T08:51:38.298Z,11.73
2018-02-13T08:54:06.638Z,11.20
2018-02-13T08:56:34.134Z,10.85
2018-02-13T08:59:01.631Z,10.43
2018-02-13T09:01:29.931Z,10.68
2018-02-13T09:03:58.144Z,10.88
2018-02-13T09:06:25.659Z,10.80
2018-02-13T09:08:53.162Z,11.02
2018-02-13T09:11:20.686Z,10.68
2018-02-13T09:13:48.174Z,10.50
2018-02-13T09:16:15.666Z,12.73
2018-02-13T09:18:43.922Z,12.43
2018-02-13T09:21:11.410Z,12.73
2018-02-13T09:23:39.691Z,10.55
2018-02-13T09:26:07.954Z,10.07
2018-02-13T09:28:36.260Z,11.23
2018-02-13T09:31:03.764Z,10.02
2018-02-13T09:33:31.255Z,10.27
2018-02-13T09:35:59.592Z,10.13
2018-02-13T09:38:27.070Z,9.68
2018-02-13T09:40:54.579Z,10.55
2018-02-13T09:43:22.821Z,10.95
2018-02-13T09:45:51.133Z,10.13
2018-02-13T09:48:19.359Z,9.02
2018-02-13T09:50:46.833Z,8.93
2018-02-13T09:53:15.094Z,8.95
2018-02-13T09:55:42.597Z,9.38
2018-02-13T09:58:10.111Z,9.40
2018-02-13T10:00:37.587Z,8.95
2018-02-13T10:03:05.886Z,8.40
2018-02-13T10:05:33.390Z,9.23
2018-02-13T10:08:00.902Z,8.27
2018-02-13T10:10:28.441Z,8.20
2018-02-13T10:12:55.973Z,6.70
2018-02-13T10:15:23.479Z,7.12
2018-02-13T10:17:51.751Z,7.80
2018-02-13T10:20:20.037Z,5.60
2018-02-13T10:22:47.518Z,7.05
2018-02-13T10:25:15.023Z,6.00
2018-02-13T10:27:42.493Z,5.32
2018-02-13T10:30:10.765Z,4.82
2018-02-13T10:32:38.232Z,3.95
2018-02-13T10:35:06.516Z,4.82
2018-02-13T10:37:34.762Z,4.30
2018-02-13T10:40:02.304Z,4.90
2018-02-13T10:42:29.767Z,4.03
2018-02-13T10:44:57.234Z,3.50
2018-02-13T10:47:25.549Z,5.12
2018-02-13T10:49:53.783Z,4.60
2018-02-13T10:52:21.284Z,4.97
2018-02-13T10:54:49.542Z,6.85
2018-02-13T10:57:17.032Z,5.80
2018-02-13T10:59:44.501Z,4.70
2018-02-13T11:02:17.677Z,5.47
2018-02-13T11:04:45.888Z,5.85
2018-02-13T11:07:13.361Z,5.10
2018-02-13T11:09:40.886Z,4.60
2018-02-13T11:12:08.390Z,4.72
2018-02-13T11:14:35.866Z,4.20
2018-02-13T11:17:03.327Z,4.10
2018-02-13T11:19:31.592Z,3.40
2018-02-13T11:21:59.101Z,2.70
2018-02-13T11:24:26.594Z,3.40
2018-02-13T11:26:54.124Z,3.35
2018-02-13T11:29:21.599Z,2.97
2018-02-13T11:31:49.081Z,3.15
2018-02-13T11:34:16.608Z,2.90
2018-02-13T11:36:44.127Z,2.67
2018-02-13T11:39:12.381Z,2.60
2018-02-13T11:41:39.902Z,2.35
2018-02-13T11:44:07.384Z,3.20
2018-02-13T11:46:34.871Z,3.30
2018-02-13T11:49:03.161Z,2.90
2018-02-13T11:51:31.425Z,2.85
2018-02-13T11:53:59.683Z,3.17
2018-02-13T11:56:27.146Z,4.10
2018-02-13T11:58:55.418Z,3.17
2018-02-13T12:01:22.901Z,3.10
2018-02-13T12:03:51.134Z,3.87
2018-02-13T12:06:18.640Z,4.00
2018-02-13T12:08:47.501Z,4.10
2018-02-13T12:11:14.997Z,3.62
2018-02-13T12:13:43.291Z,3.83
2018-02-13T12:16:10.800Z,3.95
2018-02-13T12:18:38.308Z,3.37
2018-02-13T12:21:05.792Z,4.57
2018-02-13T12:23:33.258Z,4.10
2018-02-13T12:26:00.792Z,3.95
2018-02-13T12:28:28.250Z,4.50
2018-02-13T12:30:55.773Z,4.00
2018-02-13T12:33:23.998Z,3.97
2018-02-13T12:35:51.474Z,3.85
2018-02-13T12:38:18.990Z,4.40
2018-02-13T12:40:46.500Z,4.47
2018-02-13T12:43:13.978Z,4.40
2018-02-13T12:45:42.218Z,4.80
2018-02-13T12:48:09.734Z,3.33
2018-02-13T12:50:37.186Z,4.20
2018-02-13T12:53:04.697Z,4.55
2018-02-13T12:55:32.218Z,4.35
2018-02-13T12:57:59.719Z,4.30
2018-02-13T13:00:27.190Z,3.50
2018-02-13T13:02:54.692Z,4.30
2018-02-13T13:05:22.193Z,4.37
2018-02-13T13:07:49.685Z,3.85
2018-02-13T13:10:17.938Z,3.75
2018-02-13T13:12:45.473Z,3.83
2018-02-13T13:15:12.941Z,3.58
2018-02-13T13:17:40.449Z,3.95
2018-02-13T13:20:07.953Z,3.80
2018-02-13T13:22:36.284Z,3.60
2018-02-13T13:25:04.546Z,4.07
2018-02-13T13:27:32.818Z,4.45
2018-02-13T13:30:00.296Z,4.20
2018-02-13T13:32:28.570Z,3.60
2018-02-13T13:34:56.814Z,5.32
2018-02-13T13:37:24.323Z,5.32
2018-02-13T13:39:51.861Z,19.08
2018-02-13T13:42:20.085Z,13.32
2018-02-13T13:44:47.604Z,10.75
2018-02-13T13:47:15.878Z,3.80
2018-02-13T13:49:44.175Z,14.07
2018-02-13T13:52:11.647Z,5.80
2018-02-13T13:54:39.153Z,14.70
2018-02-13T13:57:06.652Z,6.82
2018-02-13T13:59:34.170Z,3.53
2018-02-13T14:02:01.674Z,5.25
2018-02-13T14:04:29.141Z,3.42
2018-02-13T14:06:56.634Z,4.07
2018-02-13T14:09:24.094Z,3.65
2018-02-13T14:11:51.587Z,3.20
2018-02-13T14:14:19.830Z,3.15
2018-02-13T14:16:58.190Z,3.78
2018-02-13T14:19:25.639Z,4.05
2018-02-13T14:21:53.119Z,3.12
2018-02-13T14:24:20.609Z,3.17
2018-02-13T14:26:48.858Z,4.30
2018-02-13T14:29:16.370Z,3.25
2018-02-13T14:31:43.891Z,3.33
2018-02-13T14:34:11.392Z,4.53
2018-02-13T14:36:38.890Z,3.60
2018-02-13T14:39:06.367Z,3.40
2018-02-13T14:41:33.879Z,4.03
2018-02-13T14:44:02.131Z,4.18
2018-02-13T14:46:29.594Z,8.18
2018-02-13T14:48:57.094Z,4.40
2018-02-13T14:51:24.601Z,3.33
2018-02-13T14:53:52.067Z,3.15
2018-02-13T14:56:19.612Z,3.78
2018-02-13T14:58:47.094Z,4.10
2018-02-13T15:01:15.375Z,3.25
2018-02-13T15:03:43.616Z,3.20
2018-02-13T15:06:11.099Z,4.18
2018-02-13T15:08:38.625Z,4.00
2018-02-13T15:11:06.121Z,4.50
2018-02-13T15:13:34.374Z,4.20
2018-02-13T15:16:01.896Z,4.75
2018-02-13T15:18:29.870Z,3.90
2018-02-13T15:20:57.362Z,3.75
2018-02-13T15:23:24.860Z,4.60
2018-02-13T15:25:53.116Z,4.07
2018-02-13T15:28:20.611Z,4.25
2018-02-13T15:30:48.095Z,4.78
2018-02-13T15:33:15.577Z,3.40
2018-02-13T15:35:43.891Z,4.10
2018-02-13T15:38:12.161Z,3.80
2018-02-13T15:40:40.407Z,3.35
2018-02-13T15:43:07.914Z,4.90
2018-02-13T15:45:35.372Z,4.43
2018-02-13T15:48:02.870Z,3.78
2018-02-13T15:50:30.377Z,4.28
2018-02-13T15:52:57.944Z,4.12
2018-02-13T15:55:25.377Z,3.97
2018-02-13T15:57:53.647Z,3.90
2018-02-13T16:00:21.155Z,4.15
2018-02-13T16:02:48.667Z,4.53
2018-02-13T16:05:16.168Z,4.45
2018-02-13T16:07:43.675Z,5.28
2018-02-13T16:10:11.179Z,4.60
2018-02-13T16:12:38.642Z,4.40
2018-02-13T16:15:06.158Z,4.28
2018-02-13T16:17:33.663Z,4.30
2018-02-13T16:20:01.184Z,4.05
2018-02-13T16:22:28.666Z,3.80
2018-02-13T16:24:56.936Z,4.75
2018-02-13T16:27:25.198Z,5.22
2018-02-13T16:29:53.455Z,4.80
2018-02-13T16:32:20.959Z,4.80
2018-02-13T16:34:48.463Z,3.90
2018-02-13T16:37:15.974Z,3.87
2018-02-13T16:39:44.198Z,5.47
2018-02-13T16:42:11.674Z,5.45
2018-02-13T16:44:39.164Z,5.47
2018-02-13T16:47:06.676Z,5.00
2018-02-13T16:49:34.170Z,5.00
2018-02-13T16:52:03.148Z,4.87
2018-02-13T16:54:30.644Z,5.82
2018-02-13T16:56:58.149Z,5.30
2018-02-13T16:59:25.674Z,5.82
2018-02-13T17:01:53.164Z,6.30
2018-02-13T17:04:20.744Z,6.05
2018-02-13T17:06:48.202Z,5.95
2018-02-13T17:09:15.727Z,7.20
2018-02-13T17:11:43.223Z,9.27
2018-02-13T17:14:10.737Z,8.10
2018-02-13T17:16:38.195Z,9.57
2018-02-13T17:19:05.705Z,8.13
2018-02-13T17:21:33.199Z,9.35
2018-02-13T17:24:00.704Z,6.87
2018-02-13T17:26:28.206Z,6.55
2018-02-13T17:28:55.686Z,5.05
2018-02-13T17:31:23.182Z,5.53
2018-02-13T17:33:50.678Z,5.10
2018-02-13T17:36:18.168Z,4.95
2018-02-13T17:38:45.679Z,6.00
2018-02-13T17:41:13.958Z,8.20
2018-02-13T17:43:42.198Z,9.93
2018-02-13T17:46:09.671Z,15.57
2018-02-13T17:48:37.190Z,14.38
2018-02-13T17:51:04.678Z,7.50
2018-02-13T17:53:32.193Z,7.75
2018-02-13T17:55:59.658Z,5.90
2018-02-13T17:58:27.124Z,5.95
2018-02-13T18:00:54.630Z,5.60
2018-02-13T18:03:22.128Z,5.95
2018-02-13T18:05:49.618Z,6.20
2018-02-13T18:08:17.103Z,6.20
2018-02-13T18:10:44.618Z,5.95
2018-02-13T18:13:12.094Z,6.15
2018-02-13T18:15:39.622Z,5.40
2018-02-13T18:18:07.207Z,6.12
2018-02-13T18:20:34.710Z,6.12
2018-02-13T18:23:02.220Z,6.50
2018-02-13T18:25:29.694Z,6.60
2018-02-13T18:27:57.214Z,6.22
2018-02-13T18:30:24.730Z,5.20
2018-02-13T18:32:52.223Z,4.97
2018-02-13T18:35:19.709Z,5.87
2018-02-13T18:37:47.209Z,5.87
2018-02-13T18:40:15.317Z,5.90
2018-02-13T18:42:43.599Z,5.72
2018-02-13T18:45:11.851Z,5.80
2018-02-13T18:47:39.351Z,5.65
2018-02-13T18:59:57.642Z,5.75
2018-02-13T19:02:25.121Z,5.85
2018-02-13T19:04:52.626Z,6.43
2018-02-13T19:07:20.114Z,7.35
2018-02-13T19:09:48.371Z,5.47
2018-02-13T19:12:15.858Z,6.00
2018-02-13T19:14:43.358Z,6.30
2018-02-13T19:19:38.377Z,6.55
2018-02-13T19:22:05.876Z,6.82
2018-02-13T19:24:34.131Z,6.72
2018-02-13T19:27:02.410Z,7.43
2018-02-13T19:29:29.894Z,8.70
2018-02-13T19:31:58.157Z,6.68
2018-02-13T19:34:25.633Z,7.60
2018-02-13T19:36:53.918Z,7.70
2018-02-13T19:39:21.478Z,6.87
2018-02-13T19:41:48.953Z,7.80
2018-02-13T19:44:16.458Z,6.45
2018-02-13T19:46:43.946Z,6.57
2018-02-13T19:49:12.210Z,7.32
2018-02-13T19:51:40.471Z,9.23
2018-02-13T19:54:07.952Z,8.93
2018-02-13T19:56:36.223Z,8.48
2018-02-13T19:59:04.491Z,7.47
2018-02-13T20:01:32.024Z,7.90
2018-02-13T20:03:59.502Z,7.72
2018-02-13T20:06:26.993Z,7.20
2018-02-13T20:08:54.489Z,7.97
2018-02-13T20:11:22.010Z,8.77
2018-02-13T20:13:49.514Z,7.82
2018-02-13T20:16:17.071Z,8.52
2018-02-13T20:18:44.538Z,7.87
2018-02-13T20:21:12.020Z,8.88
2018-02-13T20:23:39.530Z,8.65
2018-02-13T20:26:07.016Z,8.85
2018-02-13T20:28:34.534Z,9.10
2018-02-13T20:31:02.102Z,12.95
2018-02-13T20:33:30.370Z,14.80
2018-02-13T20:35:57.842Z,13.27
2018-02-13T20:38:25.393Z,10.40
2018-02-13T20:40:52.867Z,8.50
2018-02-13T20:43:20.344Z,9.13
2018-02-13T20:45:47.975Z,8.65
2018-02-13T20:48:15.462Z,8.35
2018-02-13T20:50:42.926Z,8.63
2018-02-13T20:53:10.479Z,7.53
2018-02-13T20:55:37.942Z,8.57
2018-02-13T20:58:05.455Z,8.80
2018-02-13T21:00:33.712Z,8.80
2018-02-13T21:03:01.984Z,9.95
2018-02-13T21:05:29.458Z,10.75
2018-02-13T21:07:57.732Z,10.68
2018-02-13T21:10:25.984Z,10.95
2018-02-13T21:12:53.507Z,11.27
2018-02-13T21:15:20.983Z,10.27
2018-02-13T21:17:48.487Z,9.75
2018-02-13T21:20:16.791Z,10.52
2018-02-13T21:22:44.256Z,9.07
2018-02-13T21:25:11.768Z,9.95
2018-02-13T21:27:40.055Z,10.98
2018-02-13T21:30:08.304Z,11.38
2018-02-13T21:32:35.806Z,11.27
2018-02-13T21:35:03.312Z,10.23
2018-02-13T21:37:30.859Z,10.45
2018-02-13T21:39:58.339Z,9.80
2018-02-13T21:42:25.797Z,9.50
2018-02-13T21:44:53.312Z,11.30
2018-02-13T21:47:20.782Z,10.27
2018-02-13T21:49:48.306Z,9.35
2018-02-13T21:52:16.572Z,9.88
2018-02-13T21:54:44.826Z,10.77
2018-02-13T21:57:12.353Z,9.90
2018-02-13T21:59:39.831Z,10.90
2018-02-13T22:02:07.340Z,11.60
2018-02-13T22:04:35.582Z,11.05
2018-02-13T22:07:03.099Z,12.85
2018-02-13T22:09:30.591Z,12.02
2018-02-13T22:11:58.132Z,11.40
2018-02-13T22:14:25.630Z,12.45
2018-02-13T22:16:53.166Z,11.55
2018-02-13T22:19:20.629Z,12.10
2018-02-13T22:21:48.134Z,12.88
2018-02-13T22:24:15.639Z,11.38
2018-02-13T22:26:43.238Z,12.25
2018-02-13T22:29:11.500Z,11.07
2018-02-13T22:31:39.003Z,12.63
2018-02-13T22:34:06.501Z,13.25
2018-02-13T22:36:33.979Z,14.20
2018-02-13T22:39:02.250Z,13.32
2018-02-13T22:41:29.722Z,14.30
2018-02-13T22:43:58.011Z,15.07
2018-02-13T22:46:26.260Z,16.15
2018-02-13T22:48:53.753Z,15.60
2018-02-13T22:51:21.250Z,16.02
2018-02-13T22:53:48.715Z,16.25
2018-02-13T22:56:16.220Z,16.62
2018-02-13T22:58:44.471Z,16.17
2018-02-13T23:01:11.959Z,17.00
2018-02-13T23:03:40.212Z,18.05
2018-02-13T23:06:07.689Z,16.48
2018-02-13T23:08:35.960Z,16.10
2018-02-13T23:11:04.201Z,14.63
2018-02-13T23:13:31.714Z,17.87
2018-02-13T23:15:59.174Z,16.20
2018-02-13T23:18:26.679Z,16.20
2018-02-13T23:20:54.150Z,17.55
2018-02-13T23:23:21.671Z,16.20
2018-02-13T23:25:49.158Z,16.83
2018-02-13T23:28:16.618Z,15.02
2018-02-13T23:30:44.131Z,15.73
2018-02-13T23:33:11.617Z,16.85
2018-02-13T23:35:39.123Z,17.60
2018-02-13T23:38:07.382Z,16.70
2018-02-13T23:40:35.651Z,14.20
2018-02-13T23:43:03.139Z,15.88
2018-02-13T23:45:31.429Z,16.15
2018-02-13T23:47:59.683Z,14.75
2018-02-13T23:50:27.952Z,13.85
2018-02-13T23:52:55.458Z,14.18
2018-02-13T23:55:22.962Z,13.65
2018-02-13T23:57:50.459Z,13.70
